createdAt,value
2023-02-05T00:01:21.688Z,6.93
2023-02-05T00:03:48.150Z,6.60
2023-02-05T00:06:14.611Z,5.22
2023-02-05T00:08:41.099Z,7.10
2023-02-05T00:11:09.453Z,9.48
2023-02-05T00:13:36.827Z,6.55
2023-02-05T00:16:15.814Z,6.75
2023-02-05T00:18:42.787Z,5.28
2023-02-05T00:21:09.606Z,7.68
2023-02-05T00:23:36.662Z,6.40
2023-02-05T00:26:04.399Z,7.70
2023-02-05T00:28:34.913Z,6.97
2023-02-05T00:31:10.394Z,9.57
2023-02-05T00:33:37.812Z,10.13
2023-02-05T00:36:04.800Z,9.05
2023-02-05T00:38:31.410Z,7.43
2023-02-05T00:40:57.969Z,7.47
2023-02-05T00:43:24.494Z,7.88
2023-02-05T00:45:51.009Z,8.30
2023-02-05T00:48:17.468Z,8.38
2023-02-05T00:50:43.908Z,9.80
2023-02-05T00:53:10.517Z,5.40
2023-02-05T00:55:36.992Z,8.05
2023-02-05T00:58:03.460Z,13.32
2023-02-05T01:00:29.920Z,11.20
2023-02-05T01:02:56.428Z,8.00
2023-02-05T01:05:22.891Z,9.13
2023-02-05T01:07:49.346Z,9.57
2023-02-05T01:10:16.169Z,11.70
2023-02-05T01:12:42.641Z,4.95
2023-02-05T01:15:09.851Z,9.88
2023-02-05T01:17:36.297Z,6.38
2023-02-05T01:20:03.648Z,7.25
2023-02-05T01:22:31.557Z,6.85
2023-02-05T01:24:58.079Z,5.85
2023-02-05T01:27:27.422Z,6.25
2023-02-05T01:29:53.958Z,8.35
2023-02-05T01:32:20.465Z,7.40
2023-02-05T01:34:47.269Z,5.30
2023-02-05T01:37:13.694Z,8.77
2023-02-05T01:39:40.155Z,4.15
2023-02-05T01:42:19.448Z,11.70
2023-02-05T01:45:25.066Z,8.02
2023-02-05T01:47:56.925Z,3.65
2023-02-05T01:50:44.577Z,6.72
2023-02-05T01:53:18.469Z,5.00
2023-02-05T01:55:53.544Z,6.35
2023-02-05T01:58:20.057Z,8.10
2023-02-05T02:00:46.899Z,9.23
2023-02-05T02:03:14.082Z,7.68
2023-02-05T02:05:40.513Z,5.25
2023-02-05T02:08:07.076Z,6.47
2023-02-05T02:10:33.644Z,11.38
2023-02-05T02:13:00.791Z,6.85
2023-02-05T02:15:27.660Z,7.53
2023-02-05T02:18:18.512Z,10.75
2023-02-05T02:20:47.077Z,8.65
2023-02-05T02:23:30.635Z,5.57
2023-02-05T02:26:18.261Z,6.95
2023-02-05T02:28:48.909Z,7.70
2023-02-05T02:31:44.320Z,6.38
2023-02-05T02:34:21.898Z,7.45
2023-02-05T02:37:08.548Z,10.75
2023-02-05T02:39:41.569Z,7.22
2023-02-05T02:42:24.314Z,4.97
2023-02-05T02:44:57.250Z,5.35
2023-02-05T02:47:28.099Z,7.47
2023-02-05T02:50:01.075Z,7.68
2023-02-05T02:52:31.345Z,6.57
2023-02-05T02:55:00.578Z,9.77
2023-02-05T02:57:29.223Z,7.70
2023-02-05T02:59:59.976Z,4.88
2023-02-05T03:02:31.211Z,5.65
2023-02-05T03:05:02.374Z,8.38
2023-02-05T03:07:35.587Z,6.65
2023-02-05T03:10:43.364Z,8.15
2023-02-05T03:13:11.248Z,6.05
2023-02-05T03:15:43.981Z,7.75
2023-02-05T03:18:12.026Z,11.13
2023-02-05T03:20:43.914Z,5.82
2023-02-05T03:23:10.391Z,8.85
2023-02-05T03:25:36.870Z,4.50
2023-02-05T03:28:04.098Z,8.73
2023-02-05T03:30:52.530Z,4.60
2023-02-05T03:33:39.499Z,6.15
2023-02-05T03:36:32.318Z,7.97
2023-02-05T03:39:08.748Z,3.95
2023-02-05T03:41:55.760Z,4.65
2023-02-05T03:44:39.617Z,3.22
2023-02-05T03:47:29.852Z,8.45
2023-02-05T03:50:13.270Z,5.03
2023-02-05T03:52:55.238Z,6.13
2023-02-05T03:55:31.760Z,6.00
2023-02-05T03:58:06.284Z,5.72
2023-02-05T04:00:33.695Z,6.35
2023-02-05T04:03:01.659Z,5.55
2023-02-05T04:05:31.908Z,4.65
2023-02-05T04:08:01.870Z,5.70
2023-02-05T04:10:33.944Z,6.97
2023-02-05T04:13:02.261Z,4.90
2023-02-05T04:15:29.320Z,3.90
2023-02-05T04:17:58.700Z,4.07
2023-02-05T04:20:27.207Z,4.95
2023-02-05T04:22:53.781Z,4.50
2023-02-05T04:25:21.108Z,3.75
2023-02-05T04:27:50.504Z,4.40
2023-02-05T04:30:17.397Z,5.63
2023-02-05T04:32:45.525Z,3.95
2023-02-05T04:35:14.161Z,10.70
2023-02-05T04:37:40.799Z,8.52
2023-02-05T04:40:09.125Z,4.05
2023-02-05T04:42:35.597Z,4.82
2023-02-05T04:45:02.062Z,4.35
2023-02-05T04:47:30.262Z,7.90
2023-02-05T04:49:56.725Z,6.72
2023-02-05T04:52:23.284Z,6.82
2023-02-05T04:54:49.902Z,5.38
2023-02-05T04:57:16.337Z,5.10
2023-02-05T04:59:42.830Z,6.63
2023-02-05T05:02:09.328Z,3.55
2023-02-05T05:04:36.594Z,3.90
2023-02-05T05:07:03.148Z,5.03
2023-02-05T05:09:29.606Z,7.97
2023-02-05T05:11:58.923Z,4.93
2023-02-05T05:14:25.386Z,6.18
2023-02-05T05:16:51.816Z,7.30
2023-02-05T05:19:18.285Z,4.45
2023-02-05T05:21:44.841Z,4.25
2023-02-05T05:24:11.271Z,6.15
2023-02-05T05:26:43.563Z,3.85
2023-02-05T05:29:11.349Z,5.00
2023-02-05T05:31:37.844Z,3.08
2023-02-05T05:34:04.277Z,4.18
2023-02-05T05:36:30.750Z,4.53
2023-02-05T05:39:17.172Z,6.82
2023-02-05T05:42:01.967Z,6.05
2023-02-05T05:44:28.492Z,3.78
2023-02-05T05:46:54.950Z,6.22
2023-02-05T05:49:21.438Z,4.75
2023-02-05T05:51:47.898Z,4.82
2023-02-05T05:54:14.432Z,3.45
2023-02-05T05:56:40.891Z,19.15
2023-02-05T05:59:07.319Z,3.40
2023-02-05T06:01:33.856Z,8.57
2023-02-05T06:04:02.213Z,5.72
2023-02-05T06:06:30.139Z,6.65
2023-02-05T06:08:56.601Z,4.03
2023-02-05T06:11:23.041Z,3.38
2023-02-05T06:13:49.499Z,7.18
2023-02-05T06:16:16.005Z,7.97
2023-02-05T06:18:42.474Z,7.07
2023-02-05T06:21:10.647Z,5.72
2023-02-05T06:23:37.107Z,8.02
2023-02-05T06:26:03.597Z,5.90
2023-02-05T06:28:30.070Z,5.32
2023-02-05T06:30:56.614Z,3.78
2023-02-05T06:33:23.136Z,8.35
2023-02-05T06:35:49.643Z,6.47
2023-02-05T06:38:16.088Z,4.13
2023-02-05T06:40:42.540Z,7.95
2023-02-05T06:43:09.076Z,7.82
2023-02-05T06:45:35.969Z,6.10
2023-02-05T06:48:02.629Z,5.93
2023-02-05T06:50:29.170Z,6.40
2023-02-05T06:52:55.618Z,7.78
2023-02-05T06:55:22.071Z,8.43
2023-02-05T06:57:48.538Z,5.93
2023-02-05T07:00:16.065Z,7.90
2023-02-05T07:02:42.794Z,7.40
2023-02-05T07:05:09.745Z,5.72
2023-02-05T07:07:36.337Z,5.20
2023-02-05T07:10:03.445Z,15.70
2023-02-05T07:12:29.930Z,6.10
2023-02-05T07:14:56.368Z,6.95
2023-02-05T07:17:22.949Z,4.40
2023-02-05T07:19:49.386Z,6.95
2023-02-05T07:22:16.003Z,5.38
2023-02-05T07:24:42.469Z,6.90
2023-02-05T07:27:08.964Z,11.25
2023-02-05T07:29:35.401Z,6.97
2023-02-05T07:32:01.919Z,10.88
2023-02-05T07:34:28.452Z,5.35
2023-02-05T07:36:54.869Z,8.70
2023-02-05T07:39:21.371Z,4.80
2023-02-05T07:41:48.019Z,6.85
2023-02-05T07:44:25.099Z,7.85
2023-02-05T07:46:51.727Z,6.85
2023-02-05T07:49:18.205Z,8.32
2023-02-05T07:51:44.696Z,9.32
2023-02-05T07:54:14.451Z,8.18
2023-02-05T07:56:41.227Z,7.85
2023-02-05T07:59:07.924Z,5.38
2023-02-05T08:01:34.856Z,9.18
2023-02-05T08:04:01.403Z,6.90
2023-02-05T08:06:28.071Z,12.18
2023-02-05T08:08:56.006Z,8.35
2023-02-05T08:11:22.544Z,7.60
2023-02-05T08:13:49.035Z,6.05
2023-02-05T08:16:16.051Z,8.38
2023-02-05T08:18:42.992Z,9.35
2023-02-05T08:21:09.458Z,10.70
2023-02-05T08:23:35.926Z,7.05
2023-02-05T08:26:02.386Z,7.97
2023-02-05T08:28:29.180Z,7.13
2023-02-05T08:30:56.574Z,5.88
2023-02-05T08:33:23.381Z,8.15
2023-02-05T08:35:49.872Z,8.07
2023-02-05T08:38:16.400Z,6.50
2023-02-05T08:40:42.880Z,6.88
2023-02-05T08:43:09.357Z,7.65
2023-02-05T08:45:36.362Z,7.45
2023-02-05T08:48:03.122Z,6.85
2023-02-05T08:50:29.664Z,8.25
2023-02-05T08:52:57.038Z,10.07
2023-02-05T08:55:23.613Z,7.32
2023-02-05T08:57:50.164Z,9.13
2023-02-05T09:00:16.851Z,6.70
2023-02-05T09:02:43.858Z,7.93
2023-02-05T09:05:10.690Z,7.30
2023-02-05T09:07:40.878Z,6.30
2023-02-05T09:10:12.980Z,6.63
2023-02-05T09:12:39.836Z,9.77
2023-02-05T09:15:07.308Z,9.63
2023-02-05T09:17:33.820Z,10.18
2023-02-05T09:20:00.333Z,10.43
2023-02-05T09:22:26.799Z,11.55
2023-02-05T09:24:53.231Z,10.73
2023-02-05T09:27:19.698Z,9.30
2023-02-05T09:29:46.186Z,10.75
2023-02-05T09:32:12.657Z,11.00
2023-02-05T09:34:39.114Z,8.93
2023-02-05T09:37:05.592Z,9.85
2023-02-05T09:40:17.193Z,9.63
2023-02-05T09:42:24.472Z,10.80
2023-02-05T09:45:06.784Z,11.88
2023-02-05T09:47:38.847Z,11.23
2023-02-05T09:50:21.342Z,11.18
2023-02-05T09:52:51.097Z,9.25
2023-02-05T09:55:21.393Z,10.57
2023-02-05T09:57:48.178Z,9.45
2023-02-05T10:00:20.055Z,10.50
2023-02-05T10:02:50.786Z,12.70
2023-02-05T10:05:17.805Z,12.48
2023-02-05T10:07:59.617Z,10.18
2023-02-05T10:10:28.331Z,10.23
2023-02-05T10:13:03.940Z,8.68
2023-02-05T10:15:50.226Z,11.00
2023-02-05T10:18:19.689Z,10.23
2023-02-05T10:20:55.897Z,9.77
2023-02-05T10:23:36.736Z,10.32
2023-02-05T10:26:10.360Z,9.98
2023-02-05T10:29:03.573Z,10.55
2023-02-05T10:32:07.494Z,13.07
2023-02-05T10:34:46.651Z,10.13
2023-02-05T10:37:19.072Z,7.10
2023-02-05T10:39:47.420Z,6.50
2023-02-05T10:42:13.797Z,8.50
2023-02-05T10:44:43.990Z,8.23
2023-02-05T10:47:15.483Z,6.68
2023-02-05T10:49:52.170Z,8.77
2023-02-05T10:52:18.735Z,10.18
2023-02-05T10:54:45.883Z,8.45
2023-02-05T10:57:17.708Z,7.13
2023-02-05T10:59:54.386Z,7.53
2023-02-05T11:02:21.999Z,6.45
2023-02-05T11:04:53.174Z,6.70
2023-02-05T11:07:27.384Z,11.57
2023-02-05T11:09:54.096Z,7.47
2023-02-05T11:12:29.833Z,6.80
2023-02-05T11:15:01.379Z,6.60
2023-02-05T11:17:34.088Z,8.80
2023-02-05T11:20:39.139Z,4.88
2023-02-05T11:23:19.834Z,4.05
2023-02-05T11:26:09.516Z,4.22
2023-02-05T11:28:37.498Z,4.20
2023-02-05T11:31:20.966Z,5.85
2023-02-05T11:33:48.796Z,4.15
2023-02-05T11:36:23.113Z,4.75
2023-02-05T11:38:59.081Z,6.65
2023-02-05T11:41:31.429Z,3.97
2023-02-05T11:44:00.169Z,5.45
2023-02-05T11:46:28.907Z,6.50
2023-02-05T11:49:00.184Z,4.90
2023-02-05T11:51:47.374Z,6.30
2023-02-05T11:54:32.315Z,5.40
2023-02-05T11:57:05.338Z,5.20
2023-02-05T11:59:32.049Z,7.57
2023-02-05T12:02:30.784Z,4.10
2023-02-05T12:05:12.531Z,7.10
2023-02-05T12:08:21.167Z,4.38
2023-02-05T12:11:54.977Z,6.25
2023-02-05T12:14:43.327Z,4.70
2023-02-05T12:17:33.786Z,4.50
2023-02-05T12:20:13.765Z,4.10
2023-02-05T12:22:57.059Z,3.55
2023-02-05T12:25:30.081Z,2.88
2023-02-05T12:28:38.313Z,3.83
2023-02-05T12:31:19.757Z,4.27
2023-02-05T12:34:24.409Z,2.30
2023-02-05T12:37:09.422Z,2.63
2023-02-05T12:39:43.216Z,2.80
2023-02-05T12:42:24.416Z,3.23
2023-02-05T12:45:08.430Z,5.35
2023-02-05T12:48:01.671Z,4.03
2023-02-05T12:50:54.177Z,3.70
2023-02-05T12:53:36.803Z,2.93
2023-02-05T12:57:12.105Z,2.87
2023-02-05T12:59:48.771Z,3.70
2023-02-05T13:02:15.428Z,4.00
2023-02-05T13:04:49.617Z,3.10
2023-02-05T13:07:27.731Z,5.10
2023-02-05T13:10:03.720Z,2.43
2023-02-05T13:12:34.427Z,3.17
2023-02-05T13:15:07.475Z,2.77
2023-02-05T13:17:55.808Z,3.03
2023-02-05T13:20:47.177Z,2.23
2023-02-05T13:23:32.723Z,2.93
2023-02-05T13:26:18.072Z,4.30
2023-02-05T13:28:48.178Z,2.07
2023-02-05T13:31:33.104Z,3.43
2023-02-05T13:34:04.881Z,3.65
2023-02-05T13:36:49.553Z,3.10
2023-02-05T13:39:36.384Z,2.93
2023-02-05T13:42:27.728Z,3.07
2023-02-05T13:45:34.528Z,6.30
2023-02-05T13:48:23.148Z,4.17
2023-02-05T13:51:23.535Z,3.17
2023-02-05T13:54:15.408Z,6.30
2023-02-05T13:57:03.363Z,4.00
2023-02-05T13:59:41.298Z,3.20
2023-02-05T14:02:28.712Z,3.50
2023-02-05T14:04:56.684Z,3.97
2023-02-05T14:07:53.588Z,4.83
2023-02-05T14:10:35.378Z,3.43
2023-02-05T14:13:19.247Z,4.00
2023-02-05T14:15:46.157Z,3.47
2023-02-05T14:18:43.224Z,2.53
2023-02-05T14:21:31.219Z,3.57
2023-02-05T14:23:58.997Z,3.10
2023-02-05T14:26:48.851Z,3.33
2023-02-05T14:29:37.961Z,3.80
2023-02-05T14:32:04.576Z,4.70
2023-02-05T14:34:33.439Z,2.80
2023-02-05T14:37:00.123Z,3.53
2023-02-05T14:39:33.565Z,3.20
2023-02-05T14:42:05.684Z,3.60
2023-02-05T14:44:37.136Z,3.87
2023-02-05T14:47:19.523Z,3.40
2023-02-05T14:49:47.340Z,3.70
2023-02-05T14:52:33.256Z,3.73
2023-02-05T14:55:14.262Z,4.07
2023-02-05T14:57:53.485Z,4.03
2023-02-05T15:00:25.818Z,4.23
2023-02-05T15:03:19.574Z,4.77
2023-02-05T15:05:48.886Z,4.10
2023-02-05T15:08:34.011Z,3.50
2023-02-05T15:11:21.467Z,4.53
2023-02-05T15:14:30.791Z,3.27
2023-02-05T15:17:06.028Z,3.20
2023-02-05T15:19:47.844Z,4.20
2023-02-05T15:22:27.727Z,4.13
2023-02-05T15:24:54.709Z,4.83
2023-02-05T15:27:42.787Z,3.58
2023-02-05T15:30:16.144Z,3.30
2023-02-05T15:33:04.127Z,3.90
2023-02-05T15:35:33.010Z,4.53
2023-02-05T15:38:08.856Z,5.35
2023-02-05T15:40:40.047Z,3.70
2023-02-05T15:43:16.488Z,3.27
2023-02-05T15:45:46.386Z,3.20
2023-02-05T15:48:16.663Z,3.78
2023-02-05T15:50:46.693Z,5.15
2023-02-05T15:53:30.106Z,5.30
2023-02-05T15:55:57.172Z,4.68
2023-02-05T15:58:24.732Z,6.13
2023-02-05T16:00:53.520Z,5.70
2023-02-05T16:03:34.231Z,4.22
2023-02-05T16:06:00.896Z,3.90
2023-02-05T16:08:31.107Z,4.47
2023-02-05T16:11:01.724Z,5.68
2023-02-05T16:13:28.569Z,4.75
2023-02-05T16:16:01.699Z,4.78
2023-02-05T16:18:40.618Z,6.07
2023-02-05T16:21:18.531Z,5.70
2023-02-05T16:23:48.102Z,3.78
2023-02-05T16:26:25.632Z,5.40
2023-02-05T16:28:55.955Z,6.28
2023-02-05T16:31:25.643Z,5.43
2023-02-05T16:34:17.520Z,5.28
2023-02-05T16:36:46.609Z,7.93
2023-02-05T16:39:22.593Z,9.75
2023-02-05T16:42:02.548Z,10.35
2023-02-05T16:44:35.317Z,9.07
2023-02-05T16:47:20.123Z,8.07
2023-02-05T16:49:48.044Z,8.05
2023-02-05T16:52:30.890Z,8.77
2023-02-05T16:54:59.276Z,9.88
2023-02-05T16:57:34.476Z,12.13
2023-02-05T17:00:04.785Z,11.93
2023-02-05T17:02:35.325Z,11.77
2023-02-05T17:05:05.035Z,10.27
2023-02-05T17:07:31.785Z,11.38
2023-02-05T17:10:20.229Z,13.00
2023-02-05T17:12:48.701Z,13.63
2023-02-05T17:15:15.083Z,14.95
2023-02-05T17:17:49.157Z,12.15
2023-02-05T17:20:15.509Z,10.60
2023-02-05T17:23:00.262Z,11.65
2023-02-05T17:25:28.609Z,11.98
2023-02-05T17:27:55.670Z,7.97
2023-02-05T17:30:22.222Z,9.60
2023-02-05T17:32:50.526Z,11.20
2023-02-05T17:35:17.815Z,10.13
2023-02-05T17:37:44.252Z,10.70
2023-02-05T17:40:14.701Z,12.30
2023-02-05T17:42:41.252Z,11.73
2023-02-05T17:45:19.770Z,13.10
2023-02-05T17:47:46.465Z,15.65
2023-02-05T17:50:13.165Z,11.25
2023-02-05T17:52:39.908Z,13.18
2023-02-05T17:55:06.740Z,13.57
2023-02-05T17:57:34.957Z,17.25
2023-02-05T18:00:01.422Z,23.65
2023-02-05T18:02:38.457Z,16.02
2023-02-05T18:05:05.205Z,16.50
2023-02-05T18:07:39.731Z,12.30
2023-02-05T18:10:07.477Z,10.13
2023-02-05T18:12:34.045Z,12.15
2023-02-05T18:15:00.585Z,12.50
2023-02-05T18:17:27.089Z,11.30
2023-02-05T18:19:53.651Z,12.20
2023-02-05T18:22:20.213Z,14.35
2023-02-05T18:24:46.665Z,13.95
2023-02-05T18:27:13.187Z,11.32
2023-02-05T18:29:41.235Z,11.32
2023-02-05T18:32:08.667Z,10.88
2023-02-05T18:34:35.120Z,9.75
2023-02-05T18:37:01.634Z,13.95
2023-02-05T18:39:29.389Z,12.63
2023-02-05T18:41:56.656Z,8.23
2023-02-05T18:44:23.476Z,10.35
2023-02-05T18:46:49.964Z,12.43
2023-02-05T18:49:16.409Z,14.98
2023-02-05T18:51:43.635Z,13.05
2023-02-05T18:54:10.295Z,14.73
2023-02-05T18:56:36.840Z,11.48
2023-02-05T18:59:06.086Z,15.15
2023-02-05T19:01:34.968Z,14.07
2023-02-05T19:04:06.981Z,17.13
2023-02-05T19:06:33.628Z,14.10
2023-02-05T19:09:00.530Z,10.90
2023-02-05T19:11:27.933Z,9.95
2023-02-05T19:13:59.128Z,11.65
2023-02-05T19:16:26.795Z,11.38
2023-02-05T19:18:53.712Z,22.15
2023-02-05T19:21:21.332Z,9.73
2023-02-05T19:23:52.774Z,10.77
2023-02-05T19:26:23.644Z,11.35
2023-02-05T19:28:58.338Z,13.38
2023-02-05T19:31:27.307Z,9.73
2023-02-05T19:33:55.304Z,12.40
2023-02-05T19:36:22.472Z,11.25
2023-02-05T19:38:49.027Z,10.00
2023-02-05T19:41:18.191Z,9.80
2023-02-05T19:43:50.565Z,11.07
2023-02-05T19:46:18.929Z,10.52
2023-02-05T19:48:45.564Z,10.13
2023-02-05T19:51:13.406Z,11.90
2023-02-05T19:53:41.563Z,11.55
2023-02-05T19:56:11.216Z,12.48
2023-02-05T19:58:40.466Z,12.38
2023-02-05T20:01:18.412Z,12.48
2023-02-05T20:03:45.158Z,12.27
2023-02-05T20:06:13.965Z,12.35
2023-02-05T20:08:40.559Z,12.25
2023-02-05T20:11:07.165Z,11.75
2023-02-05T20:13:34.993Z,11.98
2023-02-05T20:16:03.840Z,10.65
2023-02-05T20:18:30.755Z,12.00
2023-02-05T20:20:57.573Z,14.55
2023-02-05T20:23:25.801Z,12.85
2023-02-05T20:25:54.334Z,12.05
2023-02-05T20:28:20.768Z,10.00
2023-02-05T20:31:05.886Z,12.77
2023-02-05T20:33:32.384Z,12.30
2023-02-05T20:36:03.821Z,13.75
2023-02-05T20:38:30.281Z,12.02
2023-02-05T20:40:56.768Z,11.98
2023-02-05T20:43:23.243Z,12.57
2023-02-05T20:45:49.652Z,13.98
2023-02-05T20:48:16.211Z,14.30
2023-02-05T20:50:42.676Z,11.30
2023-02-05T20:53:09.179Z,10.68
2023-02-05T20:55:36.596Z,11.40
2023-02-05T20:58:03.053Z,11.90
2023-02-05T21:00:29.746Z,10.60
2023-02-05T21:02:56.198Z,13.50
2023-02-05T21:05:22.653Z,12.85
2023-02-05T21:07:49.131Z,11.95
2023-02-05T21:10:16.123Z,12.63
2023-02-05T21:12:42.648Z,17.85
2023-02-05T21:15:09.211Z,11.32
2023-02-05T21:17:37.233Z,14.52
2023-02-05T21:20:04.807Z,10.95
2023-02-05T21:22:31.488Z,12.40
2023-02-05T21:24:57.925Z,9.85
2023-02-05T21:27:25.043Z,13.30
2023-02-05T21:29:51.739Z,12.35
2023-02-05T21:32:18.187Z,9.98
2023-02-05T21:34:44.641Z,13.05
2023-02-05T21:37:11.095Z,12.73
2023-02-05T21:39:37.541Z,15.65
2023-02-05T21:42:04.048Z,10.52
2023-02-05T21:44:30.528Z,12.85
2023-02-05T21:46:57.020Z,11.88
2023-02-05T21:49:23.492Z,10.05
2023-02-05T21:51:52.988Z,17.30
2023-02-05T21:54:25.190Z,14.27
2023-02-05T21:56:52.299Z,14.93
2023-02-05T21:59:20.004Z,13.57
2023-02-05T22:01:46.762Z,13.68
2023-02-05T22:04:17.448Z,11.13
2023-02-05T22:06:44.257Z,11.05
2023-02-05T22:09:13.201Z,11.25
2023-02-05T22:11:40.578Z,14.52
2023-02-05T22:14:07.549Z,16.08
2023-02-05T22:16:35.451Z,11.95
2023-02-05T22:19:02.571Z,11.20
2023-02-05T22:21:34.796Z,13.70
2023-02-05T22:24:02.031Z,15.02
2023-02-05T22:26:31.196Z,12.95
2023-02-05T22:28:59.239Z,11.40
2023-02-05T22:31:27.171Z,14.93
2023-02-05T22:33:53.659Z,12.40
2023-02-05T22:36:22.328Z,15.40
2023-02-05T22:38:49.979Z,18.13
2023-02-05T22:41:19.259Z,14.20
2023-02-05T22:43:45.849Z,21.00
2023-02-05T22:46:14.682Z,13.63
2023-02-05T22:48:42.957Z,17.33
2023-02-05T22:51:11.313Z,17.33
2023-02-05T22:53:37.787Z,15.15
2023-02-05T22:56:06.314Z,14.27
2023-02-05T22:58:33.164Z,16.73
2023-02-05T23:01:07.519Z,16.20
2023-02-05T23:03:34.239Z,11.82
2023-02-05T23:06:00.717Z,11.50
2023-02-05T23:08:27.188Z,15.75
2023-02-05T23:10:53.634Z,17.63
2023-02-05T23:13:20.130Z,11.82
2023-02-05T23:15:46.581Z,11.98
2023-02-05T23:18:13.300Z,11.18
2023-02-05T23:20:41.164Z,12.10
2023-02-05T23:23:08.227Z,13.57
2023-02-05T23:25:36.259Z,13.02
2023-02-05T23:28:02.943Z,9.25
2023-02-05T23:30:29.524Z,15.48
2023-02-05T23:32:56.029Z,9.50
2023-02-05T23:35:22.538Z,9.07
2023-02-05T23:37:48.996Z,10.48
2023-02-05T23:40:15.451Z,16.13
2023-02-05T23:42:41.911Z,12.45
2023-02-05T23:45:08.481Z,12.68
2023-02-05T23:47:34.998Z,18.80
2023-02-05T23:50:01.558Z,11.25
2023-02-05T23:52:28.000Z,11.90
2023-02-05T23:54:54.445Z,13.68
2023-02-05T23:57:20.895Z,14.73
2023-02-05T23:59:47.335Z,10.15
